Time;durP1;ratioP1;P1;durP2;ratioP2;P2;SDS_P1;SDS_P2;PMS_P1;PMS_P2;Temp;Humidity;BMP_temperature;BMP_pressure;BME280_temperature;BME280_humidity;BME280_pressure;Samples;Min_cycle;Max_cycle;Signal;HPM_P1;HPM_P2
2024/03/11 00:02:23;;;;;;;29.48;22.55;;;10.40;99.90;;;;;;5087701;28;20550;-78
2024/03/11 00:04:49;;;;;;;30.85;23.92;;;10.40;99.90;;;;;;5071020;28;20040;-78
2024/03/11 00:07:15;;;;;;;29.52;23.13;;;10.40;99.90;;;;;;5089179;28;20066;-79
2024/03/11 00:09:44;;;;;;;33.72;23.77;;;10.40;99.90;;;;;;5089030;28;20048;-78
2024/03/11 00:12:17;;;;;;;28.65;22.80;;;10.40;99.90;;;;;;5088714;28;20031;-79
2024/03/11 00:14:47;;;;;;;29.73;22.60;;;10.40;99.90;;;;;;5076008;28;20016;-79
2024/03/11 00:17:13;;;;;;;31.05;22.95;;;10.40;99.90;;;;;;5070876;28;20527;-78
2024/03/11 00:19:39;;;;;;;31.30;23.02;;;10.40;99.90;;;;;;5089194;28;20024;-78
2024/03/11 00:22:04;;;;;;;29.20;22.27;;;10.30;99.90;;;;;;5088283;28;20036;-78
2024/03/11 00:24:30;;;;;;;32.47;23.52;;;10.30;99.90;;;;;;5089042;28;20044;-77
2024/03/11 00:26:56;;;;;;;30.73;23.02;;;10.30;99.90;;;;;;5070301;28;20024;-78
2024/03/11 00:29:22;;;;;;;32.70;24.50;;;10.30;99.90;;;;;;5070415;28;20055;-78
2024/03/11 00:31:50;;;;;;;29.27;22.85;;;10.30;99.90;;;;;;5069827;28;20575;-79
2024/03/11 00:34:17;;;;;;;30.73;23.20;;;10.30;99.90;;;;;;5089213;28;20063;-78
2024/03/11 00:36:44;;;;;;;30.17;22.80;;;10.20;99.90;;;;;;5088526;28;20020;-78
2024/03/11 00:39:10;;;;;;;31.60;22.42;;;10.20;99.90;;;;;;5088757;28;20488;-78
2024/03/11 00:41:36;;;;;;;33.20;23.58;;;10.20;99.90;;;;;;5088141;28;20514;-78
2024/03/11 00:44:02;;;;;;;30.65;22.48;;;10.20;99.90;;;;;;5074359;28;20023;-78
2024/03/11 00:46:29;;;;;;;32.83;24.25;;;10.20;99.90;;;;;;5088283;28;20028;-79
2024/03/11 00:48:58;;;;;;;34.00;24.33;;;10.20;99.90;;;;;;5088303;28;20019;-78
2024/03/11 00:51:24;;;;;;;30.15;23.02;;;10.20;99.90;;;;;;5087912;28;20055;-77
2024/03/11 00:53:50;;;;;;;31.23;22.95;;;10.20;99.90;;;;;;5088192;28;20023;-78
2024/03/11 00:56:17;;;;;;;31.60;23.42;;;10.20;99.90;;;;;;5088662;28;20020;-78
2024/03/11 00:58:42;;;;;;;29.90;23.80;;;10.20;99.90;;;;;;5087967;28;20032;-78
2024/03/11 01:01:10;;;;;;;31.58;23.52;;;10.20;99.90;;;;;;5088615;28;20095;-78
2024/03/11 01:03:36;;;;;;;29.63;22.75;;;10.20;99.90;;;;;;5087847;28;20055;-78
2024/03/11 01:06:01;;;;;;;34.08;23.70;;;10.20;99.90;;;;;;5069688;28;20491;-78
2024/03/11 01:08:31;;;;;;;29.02;22.40;;;10.10;99.90;;;;;;5088098;28;20300;-78
2024/03/11 01:10:56;;;;;;;33.10;24.73;;;10.20;99.90;;;;;;5088135;28;20024;-78
2024/03/11 01:13:22;;;;;;;32.53;24.33;;;10.10;99.90;;;;;;5088238;28;20039;-79
2024/03/11 01:15:49;;;;;;;31.73;24.08;;;10.20;99.90;;;;;;5088653;28;20473;-78
2024/03/11 01:18:15;;;;;;;32.28;23.40;;;10.10;99.90;;;;;;5087980;28;20048;-78
2024/03/11 01:20:41;;;;;;;30.85;23.02;;;10.20;99.90;;;;;;5087464;28;20431;-78
2024/03/11 01:23:08;;;;;;;31.63;24.00;;;10.10;99.90;;;;;;5087342;28;20022;-78
2024/03/11 01:25:34;;;;;;;33.50;24.70;;;10.20;99.90;;;;;;5088395;28;20124;-78
2024/03/11 01:28:00;;;;;;;38.25;25.23;;;10.10;99.90;;;;;;5087547;28;20113;-78
2024/03/11 01:30:27;;;;;;;32.28;23.52;;;10.10;99.90;;;;;;5087980;28;20092;-78
2024/03/11 01:32:53;;;;;;;32.50;24.73;;;10.10;99.90;;;;;;5069086;28;20113;-78
2024/03/11 01:35:19;;;;;;;32.10;22.45;;;10.10;99.90;;;;;;5063217;28;20108;-78
2024/03/11 01:37:45;;;;;;;31.77;23.98;;;10.10;99.90;;;;;;5086972;28;20152;-78
2024/03/11 01:40:13;;;;;;;29.38;22.48;;;10.10;99.90;;;;;;5051971;28;20921;-78
2024/03/11 01:42:42;;;;;;;32.22;24.50;;;10.10;99.90;;;;;;5079541;28;20505;-78
2024/03/11 01:45:12;;;;;;;33.33;24.05;;;10.10;99.90;;;;;;5087439;28;20035;-78
2024/03/11 01:47:38;;;;;;;32.15;24.30;;;10.10;99.90;;;;;;5068589;28;20632;-78
2024/03/11 01:50:07;;;;;;;31.10;23.25;;;10.10;99.90;;;;;;5087443;28;20085;-79
2024/03/11 01:53:03;;;;;;;32.42;24.38;;;10.10;99.90;;;;;;5068660;28;20097;-78
2024/03/11 01:55:31;;;;;;;31.60;22.55;;;10.10;99.90;;;;;;5087395;28;20028;-78
2024/03/11 01:57:59;;;;;;;32.88;25.35;;;10.10;99.90;;;;;;5087924;28;20020;-78
2024/03/11 02:00:25;;;;;;;31.73;22.85;;;10.10;99.90;;;;;;5070681;28;20024;-78
2024/03/11 02:02:53;;;;;;;34.15;23.92;;;10.10;99.90;;;;;;5087200;28;20028;-79
2024/03/11 02:05:25;;;;;;;30.95;22.63;;;10.10;99.90;;;;;;5075056;28;20111;-79
2024/03/11 02:07:59;;;;;;;32.28;24.38;;;10.10;99.90;;;;;;5072890;28;20043;-77
2024/03/11 02:10:26;;;;;;;31.50;23.38;;;10.10;99.90;;;;;;5087273;28;20456;-79
2024/03/11 02:12:52;;;;;;;33.10;24.98;;;10.10;99.90;;;;;;5086498;28;20024;-79
2024/03/11 02:15:18;;;;;;;29.75;22.95;;;10.10;99.90;;;;;;5069217;28;20028;-78
2024/03/11 02:17:45;;;;;;;34.50;25.70;;;10.10;99.90;;;;;;5086840;28;20491;-79
2024/03/11 02:20:16;;;;;;;31.77;24.02;;;10.10;99.90;;;;;;5069564;28;20074;-79
2024/03/11 02:23:05;;;;;;;34.05;24.80;;;10.10;99.90;;;;;;5087753;28;20028;-79
2024/03/11 02:25:30;;;;;;;31.98;24.45;;;10.00;99.90;;;;;;5087665;28;20020;-79
2024/03/11 02:27:59;;;;;;;31.92;24.50;;;10.00;99.90;;;;;;5087073;28;20540;-78
2024/03/11 02:30:25;;;;;;;33.80;25.30;;;10.00;99.90;;;;;;5087861;28;20016;-79
2024/03/11 02:32:51;;;;;;;33.42;26.17;;;10.00;99.90;;;;;;5087868;28;20059;-78
2024/03/11 02:35:16;;;;;;;33.35;25.40;;;10.00;99.90;;;;;;5087137;28;20054;-79
2024/03/11 02:37:46;;;;;;;32.45;24.30;;;10.00;99.90;;;;;;5085697;28;20036;-79
2024/03/11 02:40:13;;;;;;;33.33;25.00;;;10.00;99.90;;;;;;5072606;28;20098;-79
2024/03/11 02:42:39;;;;;;;31.50;23.80;;;9.90;99.90;;;;;;5085652;28;20115;-79
2024/03/11 02:45:07;;;;;;;33.33;24.08;;;9.90;99.90;;;;;;5086396;28;20048;-79
2024/03/11 02:47:34;;;;;;;33.45;24.23;;;9.90;99.90;;;;;;5085785;28;20400;-79
2024/03/11 02:49:59;;;;;;;34.58;26.23;;;9.90;99.90;;;;;;5085793;28;20071;-79
2024/03/11 02:52:26;;;;;;;36.42;26.55;;;9.90;99.90;;;;;;5085532;28;20488;-79
2024/03/11 02:54:53;;;;;;;34.40;25.00;;;9.90;99.90;;;;;;5086204;28;20024;-78
2024/03/11 02:57:19;;;;;;;38.15;26.33;;;9.80;99.90;;;;;;5086294;28;20039;-78
2024/03/11 02:59:46;;;;;;;35.67;25.50;;;9.90;99.90;;;;;;5068423;28;20031;-78
2024/03/11 03:02:12;;;;;;;35.45;25.50;;;9.90;99.90;;;;;;5086028;28;20024;-79
2024/03/11 03:04:40;;;;;;;37.40;27.17;;;9.80;99.90;;;;;;5086143;28;20431;-78
2024/03/11 03:07:07;;;;;;;35.22;26.70;;;9.80;99.90;;;;;;5086341;28;20080;-78
2024/03/11 03:09:33;;;;;;;35.00;25.20;;;9.80;99.90;;;;;;5086742;28;20026;-78
2024/03/11 03:12:02;;;;;;;36.13;27.33;;;9.80;99.90;;;;;;5085771;28;20146;-77
2024/03/11 03:14:29;;;;;;;35.83;27.10;;;9.80;99.90;;;;;;5086126;28;20024;-78
2024/03/11 03:16:54;;;;;;;35.00;26.27;;;9.80;99.90;;;;;;5085947;28;20055;-78
2024/03/11 03:19:20;;;;;;;34.67;25.58;;;9.70;99.90;;;;;;5085990;28;20020;-78
2024/03/11 03:21:46;;;;;;;37.42;26.83;;;9.70;99.90;;;;;;5086117;28;20031;-78
2024/03/11 03:24:11;;;;;;;36.00;25.42;;;9.70;99.90;;;;;;5085349;28;20466;-78
2024/03/11 03:26:38;;;;;;;35.92;26.77;;;9.70;99.90;;;;;;5085694;28;20028;-78
2024/03/11 03:29:03;;;;;;;35.45;25.65;;;9.70;99.90;;;;;;5085256;28;20099;-77
2024/03/11 03:31:31;;;;;;;38.25;26.48;;;9.70;99.90;;;;;;5067525;28;20155;-78
2024/03/11 03:33:58;;;;;;;35.92;27.25;;;9.70;99.90;;;;;;5085142;28;20544;-79
2024/03/11 03:36:23;;;;;;;35.78;26.23;;;9.70;99.90;;;;;;5088855;28;20024;-79
2024/03/11 03:38:50;;;;;;;39.63;26.27;;;9.60;99.90;;;;;;5089265;28;20072;-80
2024/03/11 03:41:16;;;;;;;38.30;26.95;;;9.60;99.90;;;;;;5071534;28;20031;-81
2024/03/11 03:43:43;;;;;;;36.75;26.52;;;9.60;99.90;;;;;;5088905;28;20020;-78
2024/03/11 03:46:08;;;;;;;37.13;26.88;;;9.60;99.90;;;;;;5089644;28;20043;-78
2024/03/11 03:48:34;;;;;;;38.90;27.50;;;9.60;99.90;;;;;;5089121;28;20044;-78
2024/03/11 03:51:03;;;;;;;37.83;27.33;;;9.60;99.90;;;;;;5071349;28;20046;-78
2024/03/11 03:53:29;;;;;;;38.03;27.88;;;9.50;99.90;;;;;;5071187;28;20069;-78
2024/03/11 03:55:55;;;;;;;39.33;28.38;;;9.60;99.90;;;;;;5089456;28;20488;-77
2024/03/11 03:58:21;;;;;;;36.88;27.02;;;9.50;99.90;;;;;;5089034;28;20506;-78
2024/03/11 04:00:46;;;;;;;36.90;27.67;;;9.50;99.90;;;;;;5089637;28;20028;-77
2024/03/11 04:03:12;;;;;;;37.30;27.42;;;9.50;99.90;;;;;;5070524;28;20073;-77
2024/03/11 04:05:38;;;;;;;37.10;27.42;;;9.50;99.90;;;;;;5071099;28;20508;-77
2024/03/11 04:08:04;;;;;;;37.38;27.58;;;9.40;99.90;;;;;;5070906;28;20028;-76
2024/03/11 04:10:30;;;;;;;36.65;26.50;;;9.40;99.90;;;;;;5089225;28;20027;-76
2024/03/11 04:12:57;;;;;;;38.58;27.50;;;9.40;99.90;;;;;;5088676;28;20024;-75
2024/03/11 04:15:23;;;;;;;38.92;28.33;;;9.40;99.90;;;;;;5089952;28;20021;-75
2024/03/11 04:17:50;;;;;;;38.03;27.30;;;9.40;99.90;;;;;;5071257;28;20027;-75
2024/03/11 04:20:22;;;;;;;38.65;27.67;;;9.40;99.90;;;;;;5089453;28;20059;-75
2024/03/11 04:22:49;;;;;;;38.88;27.73;;;9.30;99.90;;;;;;5090752;28;20456;-75
2024/03/11 04:25:22;;;;;;;39.40;28.73;;;9.30;99.90;;;;;;5089526;28;20161;-74
2024/03/11 04:27:50;;;;;;;39.08;28.63;;;9.30;99.90;;;;;;5089465;28;20059;-76
2024/03/11 04:30:20;;;;;;;38.35;27.83;;;9.30;99.90;;;;;;5089410;28;20147;-75
2024/03/11 04:32:53;;;;;;;39.60;28.65;;;9.30;99.90;;;;;;5089295;28;20024;-76
2024/03/11 04:35:26;;;;;;;37.42;26.58;;;9.30;99.90;;;;;;5085078;28;20045;-75
2024/03/11 04:38:03;;;;;;;38.03;28.15;;;9.30;99.90;;;;;;5090827;28;20115;-72
2024/03/11 04:40:31;;;;;;;41.20;28.63;;;9.30;99.90;;;;;;5091393;28;20051;-75
2024/03/11 04:42:57;;;;;;;39.75;27.50;;;9.20;99.90;;;;;;5089111;28;20171;-75
2024/03/11 04:45:26;;;;;;;38.97;28.38;;;9.20;99.90;;;;;;5088702;28;20028;-76
2024/03/11 04:47:58;;;;;;;36.95;27.85;;;9.20;99.90;;;;;;5088084;28;20028;-85
2024/03/11 04:50:29;;;;;;;39.22;28.90;;;9.20;99.90;;;;;;5088306;28;20039;-75
2024/03/11 04:53:03;;;;;;;41.47;28.55;;;9.10;99.90;;;;;;5088079;28;20427;-76
2024/03/11 04:55:29;;;;;;;38.67;28.20;;;9.20;99.90;;;;;;5088611;28;20473;-76
2024/03/11 04:57:56;;;;;;;39.10;28.20;;;9.10;99.90;;;;;;5088289;28;20020;-77
2024/03/11 05:00:31;;;;;;;42.35;29.35;;;9.10;99.90;;;;;;5070269;28;20248;-77
2024/03/11 05:02:58;;;;;;;37.42;27.33;;;9.10;99.90;;;;;;5087822;28;20024;-77
2024/03/11 05:05:39;;;;;;;43.75;29.67;;;9.10;99.90;;;;;;5088108;28;20457;-76
2024/03/11 05:08:05;;;;;;;42.58;29.05;;;9.10;99.90;;;;;;5075996;28;20052;-77
2024/03/11 05:10:31;;;;;;;40.72;28.27;;;9.10;99.90;;;;;;5088255;28;20067;-77
2024/03/11 05:12:58;;;;;;;43.40;29.90;;;9.10;99.90;;;;;;5087191;28;20047;-76
2024/03/11 05:15:26;;;;;;;37.83;27.15;;;9.10;99.90;;;;;;5069741;28;20028;-77
2024/03/11 05:17:51;;;;;;;39.58;27.83;;;9.00;99.90;;;;;;5087210;28;20077;-77
2024/03/11 05:20:18;;;;;;;40.90;28.08;;;9.00;99.90;;;;;;5088139;28;20032;-77
2024/03/11 05:22:45;;;;;;;41.20;29.42;;;9.00;99.90;;;;;;5087443;28;20103;-77
2024/03/11 05:25:14;;;;;;;42.22;28.02;;;9.00;99.90;;;;;;5088056;28;20024;-76
2024/03/11 05:27:41;;;;;;;40.10;28.35;;;9.00;99.90;;;;;;5073141;28;20074;-75
2024/03/11 05:30:10;;;;;;;40.28;27.67;;;9.00;99.90;;;;;;5069648;28;20024;-75
2024/03/11 05:32:36;;;;;;;37.40;27.60;;;9.00;99.90;;;;;;5087363;28;20022;-75
2024/03/11 05:35:02;;;;;;;37.20;27.05;;;9.00;99.90;;;;;;5081555;28;20020;-76
2024/03/11 05:37:28;;;;;;;42.00;28.83;;;9.00;99.90;;;;;;5087035;28;20048;-77
2024/03/11 05:39:54;;;;;;;39.50;28.48;;;8.90;99.90;;;;;;5087344;28;20074;-76
2024/03/11 05:42:23;;;;;;;41.58;29.58;;;8.90;99.90;;;;;;5087309;28;20489;-74
2024/03/11 05:44:49;;;;;;;41.15;28.27;;;8.90;99.90;;;;;;5081066;28;20032;-77
2024/03/11 05:47:15;;;;;;;39.65;27.90;;;8.90;99.90;;;;;;5087298;28;20435;-78
2024/03/11 05:49:41;;;;;;;39.47;28.25;;;8.90;99.90;;;;;;5086792;28;20044;-78
2024/03/11 05:52:09;;;;;;;38.35;27.65;;;8.90;99.90;;;;;;5069222;28;20467;-76
2024/03/11 05:54:38;;;;;;;42.92;28.60;;;8.90;99.90;;;;;;5069019;28;20020;-75
2024/03/11 05:57:08;;;;;;;39.63;28.30;;;8.90;99.90;;;;;;5087392;28;20031;-75
2024/03/11 05:59:34;;;;;;;42.38;28.08;;;8.90;99.90;;;;;;5087825;28;20054;-75
2024/03/11 06:02:01;;;;;;;41.67;29.77;;;8.90;99.90;;;;;;5069795;28;20027;-75
2024/03/11 06:04:27;;;;;;;44.15;30.48;;;8.80;99.90;;;;;;5068941;28;20217;-76
2024/03/11 06:06:54;;;;;;;44.95;30.73;;;8.80;99.90;;;;;;5087163;28;20032;-75
2024/03/11 06:09:19;;;;;;;42.92;29.55;;;8.80;99.90;;;;;;5086436;28;20523;-75
2024/03/11 06:11:47;;;;;;;41.55;28.40;;;8.80;99.90;;;;;;5087573;28;20024;-75
2024/03/11 06:14:13;;;;;;;45.35;29.02;;;8.80;99.90;;;;;;5086426;28;20480;-76
2024/03/11 06:16:43;;;;;;;42.28;30.08;;;8.80;99.90;;;;;;5087281;28;20077;-75
2024/03/11 06:19:10;;;;;;;43.15;28.83;;;8.80;99.90;;;;;;5086670;28;20024;-75
2024/03/11 06:21:37;;;;;;;42.72;30.55;;;8.80;99.90;;;;;;5087278;28;20051;-75
2024/03/11 06:24:05;;;;;;;43.53;29.33;;;8.80;99.90;;;;;;5086731;28;20055;-75
2024/03/11 06:26:32;;;;;;;42.60;28.52;;;8.80;99.90;;;;;;5086792;28;20050;-75
2024/03/11 06:29:00;;;;;;;40.67;27.48;;;8.80;99.90;;;;;;5086895;28;20497;-75
2024/03/11 06:31:26;;;;;;;44.05;29.67;;;8.80;99.90;;;;;;5089429;28;20095;-74
2024/03/11 06:33:52;;;;;;;42.33;29.00;;;8.70;99.90;;;;;;5087814;28;20565;-75
2024/03/11 06:36:18;;;;;;;41.35;27.90;;;8.80;99.90;;;;;;5083844;28;20400;-76
2024/03/11 06:38:44;;;;;;;39.58;27.23;;;8.70;99.90;;;;;;5086430;28;20024;-75
2024/03/11 06:41:11;;;;;;;46.67;29.65;;;8.80;99.90;;;;;;5086003;28;20031;-76
2024/03/11 06:43:38;;;;;;;43.85;29.17;;;8.70;99.90;;;;;;5078168;28;20500;-76
2024/03/11 06:46:04;;;;;;;41.47;28.05;;;8.70;99.90;;;;;;5082910;28;20088;-76
2024/03/11 06:48:29;;;;;;;40.40;28.45;;;8.70;99.90;;;;;;5075955;28;20499;-75
2024/03/11 06:50:55;;;;;;;46.05;29.52;;;8.70;99.90;;;;;;5079964;28;20095;-75
2024/03/11 06:53:20;;;;;;;43.63;29.75;;;8.70;99.90;;;;;;5077331;28;20333;-75
2024/03/11 06:55:46;;;;;;;41.97;28.45;;;8.70;99.90;;;;;;5075084;28;20024;-74
2024/03/11 06:58:12;;;;;;;47.60;32.45;;;8.70;99.90;;;;;;5078901;28;20401;-75
2024/03/11 07:00:39;;;;;;;49.63;30.92;;;8.80;99.90;;;;;;5074593;28;20369;-76
2024/03/11 07:03:05;;;;;;;48.67;29.75;;;8.70;99.90;;;;;;5076710;28;20027;-74
2024/03/11 07:05:31;;;;;;;45.17;28.85;;;8.70;99.90;;;;;;5067069;28;20029;-75
2024/03/11 07:07:57;;;;;;;41.20;29.27;;;8.70;99.90;;;;;;5054312;28;20016;-75
2024/03/11 07:10:23;;;;;;;47.08;30.40;;;8.70;99.90;;;;;;5083145;28;20030;-74
2024/03/11 07:12:49;;;;;;;42.78;28.23;;;8.70;99.90;;;;;;5063360;28;20020;-72
2024/03/11 07:15:16;;;;;;;44.97;29.52;;;8.80;99.90;;;;;;5080902;28;20012;-75
2024/03/11 07:17:42;;;;;;;50.40;30.08;;;8.70;99.90;;;;;;5077332;28;20024;-75
2024/03/11 07:20:08;;;;;;;45.70;29.83;;;8.70;99.90;;;;;;5084454;28;20023;-74
2024/03/11 07:22:38;;;;;;;41.55;28.48;;;8.70;99.90;;;;;;5078533;28;20492;-74
2024/03/11 07:25:09;;;;;;;47.00;30.50;;;8.70;99.90;;;;;;5065787;28;20097;-73
2024/03/11 07:27:39;;;;;;;49.97;31.40;;;8.70;99.90;;;;;;5071801;28;20127;-74
2024/03/11 07:30:09;;;;;;;58.60;31.77;;;8.80;99.90;;;;;;5089963;28;20027;-75
2024/03/11 07:32:36;;;;;;;51.28;29.98;;;8.70;99.90;;;;;;5081861;28;20040;-75
2024/03/11 07:35:02;;;;;;;48.60;31.17;;;8.80;99.90;;;;;;5080060;28;20020;-71
2024/03/11 07:37:28;;;;;;;46.22;30.17;;;8.80;99.90;;;;;;5082128;28;20021;-73
2024/03/11 07:39:54;;;;;;;50.30;31.05;;;8.80;99.90;;;;;;5076126;28;20027;-74
2024/03/11 07:42:22;;;;;;;50.40;30.25;;;8.80;99.90;;;;;;5076251;28;20028;-75
2024/03/11 07:44:51;;;;;;;50.58;29.98;;;8.80;99.90;;;;;;5056514;28;20031;-75
2024/03/11 07:47:17;;;;;;;52.08;30.48;;;8.80;99.90;;;;;;5071710;28;20055;-76
2024/03/11 07:49:43;;;;;;;48.75;29.75;;;8.80;99.90;;;;;;5048677;28;20582;-76
2024/03/11 07:52:12;;;;;;;52.15;30.98;;;8.80;99.90;;;;;;5054577;28;20094;-76
2024/03/11 07:54:38;;;;;;;48.70;29.58;;;8.80;99.90;;;;;;5073454;28;20100;-76
2024/03/11 07:57:03;;;;;;;52.70;29.98;;;8.80;99.90;;;;;;5070596;28;20119;-75
2024/03/11 07:59:29;;;;;;;53.13;31.40;;;8.80;99.90;;;;;;5070077;28;20489;-75
2024/03/11 08:01:55;;;;;;;51.00;29.20;;;8.80;99.90;;;;;;5067708;28;20356;-75
2024/03/11 08:04:20;;;;;;;46.45;29.40;;;8.80;99.90;;;;;;5080360;28;20028;-75
2024/03/11 08:06:46;;;;;;;52.33;31.05;;;8.80;99.90;;;;;;5085389;28;20028;-76
2024/03/11 08:09:14;;;;;;;46.40;29.08;;;8.80;99.90;;;;;;5082615;28;20039;-76
2024/03/11 08:11:40;;;;;;;48.47;29.05;;;8.80;99.90;;;;;;5085759;28;20038;-75
2024/03/11 08:14:05;;;;;;;50.83;29.88;;;8.80;99.90;;;;;;5072314;28;20021;-75
2024/03/11 08:16:31;;;;;;;49.00;27.60;;;8.80;99.90;;;;;;5078243;28;20120;-75
2024/03/11 08:18:57;;;;;;;50.83;29.05;;;8.80;99.90;;;;;;5070047;28;20017;-74
2024/03/11 08:21:23;;;;;;;46.53;27.48;;;8.80;99.90;;;;;;5085055;28;20054;-75
2024/03/11 08:23:49;;;;;;;51.35;28.92;;;8.80;99.90;;;;;;5084919;28;20489;-74
2024/03/11 08:26:17;;;;;;;59.85;28.00;;;8.80;99.90;;;;;;5088897;28;20540;-75
2024/03/11 08:28:43;;;;;;;48.05;27.85;;;8.80;99.90;;;;;;5083414;28;20424;-75
2024/03/11 08:31:08;;;;;;;23.75;12.13;;;8.80;99.90;;;;;;5088000;28;20438;-75
2024/03/11 08:33:36;;;;;;;16.50;8.55;;;8.80;99.90;;;;;;5081449;28;20048;-74
2024/03/11 08:36:05;;;;;;;4.38;1.80;;;8.80;99.90;;;;;;5075008;28;20112;-74
2024/03/11 08:38:32;;;;;;;19.88;9.73;;;8.80;99.90;;;;;;5070010;28;20533;-75
2024/03/11 08:40:58;;;;;;;72.30;30.17;;;8.80;99.90;;;;;;5091547;28;20031;-73
2024/03/11 08:43:26;;;;;;;97.03;37.22;;;8.80;99.90;;;;;;5091149;28;20012;-74
2024/03/11 08:45:51;;;;;;;93.00;37.83;;;8.80;99.90;;;;;;5073232;28;20016;-75
2024/03/11 08:48:17;;;;;;;90.00;36.97;;;8.80;99.90;;;;;;5095120;28;20554;-75
2024/03/11 08:50:46;;;;;;;93.38;37.88;;;8.80;99.90;;;;;;5093117;28;20557;-75
2024/03/11 08:53:11;;;;;;;66.57;32.92;;;8.80;99.90;;;;;;5091384;28;20093;-76
2024/03/11 08:55:37;;;;;;;80.05;33.47;;;8.80;99.90;;;;;;5087969;28;21768;-75
2024/03/11 08:58:05;;;;;;;75.18;32.97;;;8.80;99.90;;;;;;5083967;28;20031;-75
2024/03/11 09:00:36;;;;;;;68.70;30.90;;;8.80;99.90;;;;;;5087120;28;20023;-75
2024/03/11 09:03:04;;;;;;;66.97;31.55;;;8.80;99.90;;;;;;5085865;28;20024;-75
2024/03/11 09:05:31;;;;;;;60.90;30.67;;;8.90;99.90;;;;;;5088642;28;20200;-75
2024/03/11 09:07:58;;;;;;;65.95;31.88;;;8.80;99.90;;;;;;5065415;28;20024;-75
2024/03/11 09:10:24;;;;;;;66.80;32.17;;;8.80;99.90;;;;;;5058886;28;20157;-75
2024/03/11 09:12:51;;;;;;;63.55;30.90;;;8.80;99.90;;;;;;5062110;28;20012;-75
2024/03/11 09:15:17;;;;;;;73.22;33.50;;;8.80;99.90;;;;;;5055219;28;20028;-76
2024/03/11 09:17:44;;;;;;;80.97;31.95;;;8.80;99.90;;;;;;5075706;28;20078;-75
2024/03/11 09:20:17;;;;;;;69.18;31.38;;;8.80;99.90;;;;;;5070561;28;20032;-75
2024/03/11 09:22:47;;;;;;;73.50;33.25;;;8.90;99.90;;;;;;5070678;28;20059;-76
2024/03/11 09:25:17;;;;;;;72.13;33.45;;;8.80;99.90;;;;;;5076768;28;20028;-76
2024/03/11 09:27:47;;;;;;;73.78;34.42;;;8.90;99.90;;;;;;5085487;28;20027;-76
2024/03/11 09:30:14;;;;;;;75.57;33.10;;;8.90;99.90;;;;;;5085715;28;20115;-76
2024/03/11 09:32:43;;;;;;;72.97;34.17;;;8.90;99.90;;;;;;5076368;28;20450;-77
2024/03/11 09:35:09;;;;;;;71.63;32.40;;;8.90;99.90;;;;;;5079455;28;20052;-76
2024/03/11 09:37:35;;;;;;;85.35;35.50;;;8.90;99.90;;;;;;5049505;28;20206;-77
2024/03/11 09:40:01;;;;;;;81.90;36.13;;;8.90;99.90;;;;;;5056832;28;20461;-75
2024/03/11 09:42:30;;;;;;;77.57;33.63;;;8.90;99.90;;;;;;5076861;28;20027;-75
2024/03/11 09:44:56;;;;;;;63.97;32.95;;;8.90;99.90;;;;;;5063993;28;20028;-75
2024/03/11 09:47:24;;;;;;;87.65;33.78;;;8.90;99.90;;;;;;5067081;28;20038;-74
2024/03/11 09:49:50;;;;;;;82.93;33.30;;;8.90;99.90;;;;;;5072340;28;20028;-74
2024/03/11 09:52:20;;;;;;;75.13;33.85;;;8.90;99.90;;;;;;5072473;28;20020;-75
2024/03/11 09:54:46;;;;;;;86.65;34.67;;;8.90;99.90;;;;;;5076836;28;20527;-75
2024/03/11 09:57:13;;;;;;;73.55;33.20;;;8.90;99.90;;;;;;5062666;28;20032;-74
2024/03/11 09:59:43;;;;;;;83.55;34.60;;;8.90;99.90;;;;;;5082663;28;20020;-75
2024/03/11 10:02:12;;;;;;;74.90;29.85;;;8.90;99.90;;;;;;5060959;28;20027;-73
2024/03/11 10:04:38;;;;;;;71.40;33.05;;;8.90;99.90;;;;;;5082734;28;20477;-74
2024/03/11 10:07:08;;;;;;;82.07;34.30;;;8.90;99.90;;;;;;5077403;28;20021;-76
2024/03/11 10:09:44;;;;;;;79.35;34.15;;;8.90;99.90;;;;;;5062322;28;20020;-75
2024/03/11 10:12:11;;;;;;;88.13;35.67;;;8.90;99.90;;;;;;5058964;28;20025;-74
2024/03/11 10:14:40;;;;;;;72.68;33.28;;;8.90;99.90;;;;;;5076109;28;20020;-74
2024/03/11 10:17:35;;;;;;;75.40;32.88;;;8.90;99.90;;;;;;5070427;28;20038;-76
2024/03/11 10:20:00;;;;;;;93.88;33.25;;;8.90;99.90;;;;;;5057173;28;20040;-75
2024/03/11 10:22:29;;;;;;;76.88;33.53;;;8.90;99.90;;;;;;5076430;28;20508;-74
2024/03/11 10:24:57;;;;;;;75.25;33.17;;;8.90;99.90;;;;;;5071899;28;20012;-74
2024/03/11 10:27:39;;;;;;;65.97;30.98;;;8.80;99.90;;;;;;5075295;28;20560;-75
2024/03/11 10:30:23;;;;;;;73.30;32.35;;;8.80;99.90;;;;;;5073084;28;20036;-75
2024/03/11 10:32:55;;;;;;;74.68;31.85;;;8.90;99.90;;;;;;5079359;28;20520;-74
2024/03/11 10:35:22;;;;;;;84.40;34.38;;;8.90;99.90;;;;;;5082985;28;20032;-74
2024/03/11 10:37:50;;;;;;;71.25;32.97;;;8.80;99.90;;;;;;5085403;28;20028;-74
2024/03/11 10:40:20;;;;;;;68.57;32.33;;;8.80;99.90;;;;;;5072672;28;20362;-75
2024/03/11 10:42:53;;;;;;;84.15;34.30;;;8.90;99.90;;;;;;5086725;28;20027;-74
2024/03/11 10:45:33;;;;;;;97.72;34.53;;;8.90;99.90;;;;;;5084831;28;20028;-74
2024/03/11 10:48:00;;;;;;;99.95;34.20;;;8.90;99.90;;;;;;5086138;28;20031;-77
2024/03/11 10:50:32;;;;;;;79.20;33.35;;;8.90;99.90;;;;;;5082964;28;20036;-74
2024/03/11 10:52:59;;;;;;;94.70;33.50;;;8.90;99.90;;;;;;5074092;28;20030;-72
2024/03/11 10:55:34;;;;;;;81.90;32.20;;;8.90;99.90;;;;;;5069963;28;20112;-73
2024/03/11 10:58:01;;;;;;;83.47;31.98;;;8.90;99.90;;;;;;5074648;28;20028;-73
2024/03/11 11:00:33;;;;;;;83.22;33.72;;;8.90;99.90;;;;;;5064967;28;20164;-74
2024/03/11 11:03:13;;;;;;;100.53;34.58;;;8.90;99.90;;;;;;5080878;28;20024;-73
2024/03/11 11:05:48;;;;;;;78.95;33.22;;;8.90;99.90;;;;;;5076233;28;20032;-72
2024/03/11 11:08:14;;;;;;;86.25;34.55;;;8.90;99.90;;;;;;5068109;28;20063;-73
2024/03/11 11:10:42;;;;;;;87.13;34.15;;;8.90;99.90;;;;;;5067756;28;20051;-72
2024/03/11 11:13:08;;;;;;;88.32;34.60;;;8.90;99.90;;;;;;5066793;28;20016;-73
2024/03/11 11:15:41;;;;;;;78.50;34.20;;;8.90;99.90;;;;;;5069182;28;20021;-74
2024/03/11 11:18:13;;;;;;;89.55;34.60;;;8.90;99.90;;;;;;5068606;28;20485;-74
2024/03/11 11:20:42;;;;;;;93.28;35.47;;;8.90;99.90;;;;;;5066961;28;20056;-74
2024/03/11 11:23:10;;;;;;;107.00;34.47;;;8.90;99.90;;;;;;5083515;28;20031;-74
2024/03/11 11:25:44;;;;;;;144.05;38.55;;;8.90;99.90;;;;;;5085671;28;20060;-74
2024/03/11 11:28:29;;;;;;;94.10;33.50;;;8.90;99.90;;;;;;5087019;28;20032;-74
2024/03/11 11:31:12;;;;;;;102.65;36.45;;;8.90;99.90;;;;;;5059870;28;20019;-74
2024/03/11 11:33:53;;;;;;;85.13;32.83;;;8.90;99.90;;;;;;5079606;28;20051;-74
2024/03/11 11:36:37;;;;;;;93.88;33.42;;;8.90;99.90;;;;;;5083527;28;20035;-74
2024/03/11 11:39:14;;;;;;;74.55;30.50;;;8.90;99.90;;;;;;5076695;28;20043;-73
2024/03/11 11:41:46;;;;;;;126.43;35.92;;;8.90;99.90;;;;;;5082265;28;20436;-75
2024/03/11 11:44:27;;;;;;;86.55;33.95;;;8.90;99.90;;;;;;5085606;28;20020;-74
2024/03/11 11:47:03;;;;;;;84.53;33.90;;;8.90;99.90;;;;;;5077329;28;20053;-74
2024/03/11 11:49:34;;;;;;;107.82;34.97;;;8.90;99.90;;;;;;5080555;28;20028;-73
2024/03/11 11:52:01;;;;;;;80.70;33.05;;;8.90;99.90;;;;;;5082092;28;20028;-75
2024/03/11 11:54:34;;;;;;;78.50;33.13;;;8.90;99.90;;;;;;5086106;28;20485;-74
2024/03/11 11:57:06;;;;;;;90.63;34.35;;;8.90;99.90;;;;;;5068662;28;20035;-74
2024/03/11 11:59:36;;;;;;;89.28;33.15;;;9.00;99.90;;;;;;5081763;28;20387;-74
2024/03/11 12:02:02;;;;;;;109.47;36.45;;;9.00;99.90;;;;;;5081407;28;20028;-75
2024/03/11 12:04:28;;;;;;;130.63;38.05;;;9.00;99.90;;;;;;5074760;28;20165;-75
2024/03/11 12:06:55;;;;;;;129.10;36.20;;;9.00;99.90;;;;;;5064843;28;20480;-74
2024/03/11 12:09:22;;;;;;;85.68;32.97;;;9.00;99.90;;;;;;5081562;28;20198;-75
2024/03/11 12:11:49;;;;;;;95.90;33.75;;;9.00;99.90;;;;;;5079149;28;20024;-73
2024/03/11 12:14:15;;;;;;;89.80;34.65;;;9.00;99.90;;;;;;5077359;28;20032;-75
2024/03/11 12:16:42;;;;;;;85.20;31.98;;;9.00;99.90;;;;;;5089086;28;20101;-75
2024/03/11 12:19:10;;;;;;;84.15;33.10;;;9.00;99.90;;;;;;5087202;28;20016;-75
2024/03/11 12:21:43;;;;;;;97.90;34.05;;;9.00;99.90;;;;;;5087342;28;20024;-75
2024/03/11 12:24:16;;;;;;;84.03;32.90;;;9.00;99.90;;;;;;5070143;28;20391;-74
2024/03/11 12:26:45;;;;;;;72.82;31.30;;;9.00;99.90;;;;;;5059185;28;20028;-75
2024/03/11 12:29:22;;;;;;;118.25;34.97;;;9.00;99.90;;;;;;5064174;28;20644;-75
2024/03/11 12:31:56;;;;;;;102.75;33.78;;;9.00;99.90;;;;;;5068914;28;20280;-74
2024/03/11 12:34:26;;;;;;;107.65;32.47;;;9.00;99.90;;;;;;5074496;28;20017;-75
2024/03/11 12:36:54;;;;;;;80.82;33.53;;;9.10;99.90;;;;;;5075621;28;20109;-74
2024/03/11 12:39:25;;;;;;;70.07;30.73;;;9.10;99.90;;;;;;5088414;28;20044;-74
2024/03/11 12:41:56;;;;;;;68.88;28.98;;;9.10;99.90;;;;;;5086857;28;20061;-75